Time;durP1;ratioP1;P1;durP2;ratioP2;P2;SDS_P1;SDS_P2;PMS_P1;PMS_P2;Temp;Humidity;BMP_temperature;BMP_pressure;BME280_temperature;BME280_humidity;BME280_pressure;Samples;Min_cycle;Max_cycle;Signal;HPM_P1;HPM_P2
2022/04/18 00:01:50;;;;;;;3.75;2.33;;;9.10;99.90;;;;;;5015634;28;20386;-60
2022/04/18 00:04:17;;;;;;;3.92;2.60;;;9.10;99.90;;;;;;5031018;28;20052;-60
2022/04/18 00:06:44;;;;;;;3.25;2.25;;;9.10;99.90;;;;;;5024248;28;20061;-60
2022/04/18 00:09:11;;;;;;;3.15;2.30;;;9.10;99.90;;;;;;5036459;28;20045;-59
2022/04/18 00:11:38;;;;;;;3.85;2.60;;;9.00;99.90;;;;;;5033734;28;20077;-60
2022/04/18 00:14:05;;;;;;;3.90;2.47;;;8.90;99.90;;;;;;5029068;28;20068;-60
2022/04/18 00:16:31;;;;;;;3.47;2.47;;;8.90;99.90;;;;;;5032469;28;20057;-60
2022/04/18 00:18:58;;;;;;;4.00;2.83;;;8.80;99.90;;;;;;5028878;28;20049;-60
2022/04/18 00:21:25;;;;;;;3.90;2.65;;;8.80;99.90;;;;;;5033358;28;20418;-60
2022/04/18 00:23:52;;;;;;;3.30;2.58;;;8.80;99.90;;;;;;5036026;28;20052;-60
2022/04/18 00:26:19;;;;;;;3.33;2.60;;;8.80;99.90;;;;;;5027989;28;20088;-60
2022/04/18 00:28:45;;;;;;;3.17;2.42;;;8.80;99.90;;;;;;5028063;28;20073;-60
2022/04/18 00:31:12;;;;;;;3.40;2.63;;;8.80;99.90;;;;;;5026770;28;20084;-60
2022/04/18 00:33:39;;;;;;;2.92;2.03;;;8.80;99.90;;;;;;5028356;28;20049;-60
2022/04/18 00:36:05;;;;;;;3.08;2.20;;;8.80;99.90;;;;;;5024075;28;20549;-60
2022/04/18 00:38:32;;;;;;;3.85;3.03;;;8.70;99.90;;;;;;5031894;28;20108;-60
2022/04/18 00:40:59;;;;;;;3.63;2.60;;;8.70;99.90;;;;;;5033702;28;20095;-60
2022/04/18 00:43:43;;;;;;;3.60;2.58;;;8.70;99.90;;;;;;5034389;28;20521;-60
2022/04/18 00:46:10;;;;;;;3.20;2.35;;;8.80;99.90;;;;;;5011777;28;20136;-60
2022/04/18 00:48:37;;;;;;;3.60;2.25;;;8.80;99.90;;;;;;5027539;28;20049;-60
2022/04/18 00:51:05;;;;;;;3.67;2.70;;;8.70;99.90;;;;;;5025778;28;20087;-60
2022/04/18 00:53:32;;;;;;;4.57;3.33;;;8.80;99.90;;;;;;5028431;28;20285;-60
2022/04/18 00:55:59;;;;;;;3.10;2.53;;;8.80;99.90;;;;;;5027917;28;20134;-60
2022/04/18 00:58:25;;;;;;;4.15;2.85;;;8.90;99.90;;;;;;5027848;28;20457;-60
2022/04/18 01:00:53;;;;;;;3.03;2.28;;;8.90;99.90;;;;;;5017063;28;20449;-60
2022/04/18 01:03:20;;;;;;;3.97;2.70;;;9.00;99.90;;;;;;5031042;28;20056;-60
2022/04/18 01:05:47;;;;;;;3.50;2.80;;;9.10;99.90;;;;;;5025216;28;20160;-60
2022/04/18 01:08:14;;;;;;;5.45;3.28;;;9.10;99.90;;;;;;5024213;28;20120;-60
2022/04/18 01:10:41;;;;;;;3.20;2.38;;;9.20;99.90;;;;;;5028070;28;20057;-60
2022/04/18 01:13:08;;;;;;;3.58;2.40;;;9.30;99.90;;;;;;5027741;28;20425;-60
2022/04/18 01:15:35;;;;;;;3.65;2.50;;;9.30;99.90;;;;;;5025897;28;20045;-60
2022/04/18 01:18:02;;;;;;;3.75;3.00;;;9.40;99.90;;;;;;5031607;28;20104;-60
2022/04/18 01:20:34;;;;;;;3.55;2.55;;;9.40;99.90;;;;;;5026901;28;20080;-61
2022/04/18 01:23:02;;;;;;;3.13;2.63;;;9.50;99.90;;;;;;5034383;28;20085;-60
2022/04/18 01:30:59;;;;;;;3.67;2.58;;;9.60;99.90;;;;;;5026118;28;20105;-60
2022/04/18 01:33:26;;;;;;;4.25;2.55;;;9.60;99.90;;;;;;5025666;28;20549;-61
2022/04/18 01:35:53;;;;;;;3.70;2.88;;;9.60;99.90;;;;;;5027709;28;20141;-60
2022/04/18 01:38:19;;;;;;;3.67;2.75;;;9.60;99.90;;;;;;5028489;28;20497;-60
2022/04/18 01:40:46;;;;;;;3.97;2.70;;;9.50;99.90;;;;;;5028157;28;20050;-60
2022/04/18 01:43:13;;;;;;;5.57;3.30;;;9.50;99.90;;;;;;5033902;28;20150;-60
2022/04/18 01:45:40;;;;;;;4.18;3.08;;;9.50;99.90;;;;;;5034494;28;20081;-60
2022/04/18 01:48:07;;;;;;;4.15;3.17;;;9.50;99.90;;;;;;5032927;28;20049;-60
2022/04/18 01:50:33;;;;;;;4.43;3.22;;;9.50;99.90;;;;;;5027485;28;20268;-60
2022/04/18 01:53:00;;;;;;;3.80;3.17;;;9.40;99.90;;;;;;5028046;28;20132;-60
2022/04/18 01:55:27;;;;;;;4.15;3.15;;;9.40;99.90;;;;;;5025475;28;20184;-60
2022/04/18 01:57:54;;;;;;;4.57;3.47;;;9.40;99.90;;;;;;5019229;28;20120;-60
2022/04/18 02:00:20;;;;;;;5.38;3.53;;;9.40;99.90;;;;;;5024156;28;20420;-60
2022/04/18 02:02:47;;;;;;;4.68;2.97;;;9.40;99.90;;;;;;5021599;28;20127;-61
2022/04/18 02:05:14;;;;;;;3.70;2.80;;;9.30;99.90;;;;;;5030286;28;20156;-61
2022/04/18 02:07:41;;;;;;;3.97;2.70;;;9.30;99.90;;;;;;5018659;28;20076;-60
2022/04/18 02:10:08;;;;;;;3.80;2.80;;;9.30;99.90;;;;;;5031242;28;20095;-60
2022/04/18 02:12:35;;;;;;;4.93;3.58;;;9.30;99.90;;;;;;5033999;28;20073;-60
2022/04/18 02:15:01;;;;;;;4.75;3.38;;;9.30;99.90;;;;;;5027359;28;20166;-62
2022/04/18 02:17:28;;;;;;;4.45;3.92;;;9.30;99.90;;;;;;5034746;28;20053;-61
2022/04/18 02:19:55;;;;;;;4.90;3.35;;;9.30;99.90;;;;;;5034542;28;20132;-60
2022/04/18 02:22:22;;;;;;;4.68;3.38;;;9.30;99.90;;;;;;5033819;28;20120;-60
2022/04/18 02:24:50;;;;;;;4.30;3.20;;;9.30;99.90;;;;;;5034327;28;20080;-59
2022/04/18 02:27:16;;;;;;;4.53;3.25;;;9.30;99.90;;;;;;5027482;28;20236;-60
2022/04/18 02:29:43;;;;;;;4.47;3.53;;;9.20;99.90;;;;;;5035240;28;20132;-60
2022/04/18 02:34:56;;;;;;;5.20;3.38;;;9.20;99.90;;;;;;5032822;28;20072;-59
2022/04/18 02:37:22;;;;;;;3.85;3.22;;;9.20;99.90;;;;;;5031946;28;20497;-59
2022/04/18 02:39:49;;;;;;;4.78;3.72;;;9.20;99.90;;;;;;5028532;28;20084;-59
2022/04/18 02:42:18;;;;;;;4.68;3.72;;;9.20;99.90;;;;;;5025290;28;20077;-59
2022/04/18 02:44:46;;;;;;;4.85;3.65;;;9.20;99.90;;;;;;5019645;28;20124;-59
2022/04/18 02:47:13;;;;;;;5.40;4.30;;;9.20;99.90;;;;;;5020078;28;20316;-59
2022/04/18 02:49:40;;;;;;;5.53;3.88;;;9.20;99.90;;;;;;5026245;28;20045;-59
2022/04/18 02:52:07;;;;;;;6.10;4.57;;;9.20;99.90;;;;;;5029276;28;20128;-59
2022/04/18 02:54:34;;;;;;;5.70;4.20;;;9.20;99.90;;;;;;5030381;28;20084;-60
2022/04/18 02:57:01;;;;;;;4.95;3.90;;;9.20;99.90;;;;;;5027263;28;20516;-59
2022/04/18 02:59:27;;;;;;;5.30;4.10;;;9.20;99.90;;;;;;5035495;28;20168;-59
2022/04/18 03:01:54;;;;;;;5.15;3.72;;;9.10;99.90;;;;;;5033727;28;20080;-60
2022/04/18 03:04:22;;;;;;;5.55;3.92;;;9.10;99.90;;;;;;5030082;28;20067;-59
2022/04/18 03:06:49;;;;;;;5.45;4.13;;;9.00;99.90;;;;;;5030702;28;20120;-60
2022/04/18 03:09:15;;;;;;;5.65;4.38;;;9.00;99.90;;;;;;5036630;28;20140;-60
2022/04/18 03:11:42;;;;;;;6.05;4.75;;;8.90;99.90;;;;;;5038413;28;20437;-59
2022/04/18 03:14:09;;;;;;;6.63;4.47;;;8.90;99.90;;;;;;5033805;28;20215;-59
2022/04/18 03:16:35;;;;;;;5.10;4.03;;;8.90;99.90;;;;;;5031239;28;20077;-59
2022/04/18 03:19:02;;;;;;;4.90;4.22;;;8.90;99.90;;;;;;5031233;28;20164;-59
2022/04/18 03:21:29;;;;;;;5.72;3.92;;;8.90;99.90;;;;;;5030563;28;20148;-59
2022/04/18 03:23:56;;;;;;;5.95;4.57;;;8.90;99.90;;;;;;5032397;28;20133;-59
2022/04/18 03:26:22;;;;;;;5.53;4.72;;;8.90;99.90;;;;;;5039147;28;20097;-59
2022/04/18 03:28:49;;;;;;;6.07;4.68;;;8.80;99.90;;;;;;5032953;28;20080;-59
2022/04/18 03:31:16;;;;;;;5.85;4.50;;;8.80;99.90;;;;;;5031185;28;20136;-59
2022/04/18 03:33:42;;;;;;;5.43;4.32;;;8.80;99.90;;;;;;5030972;28;20042;-60
2022/04/18 03:41:41;;;;;;;5.95;4.35;;;8.70;99.90;;;;;;5028605;28;20054;-59
2022/04/18 03:44:09;;;;;;;6.03;4.45;;;8.70;99.90;;;;;;5025323;28;20092;-60
2022/04/18 03:46:35;;;;;;;6.53;4.03;;;8.60;99.90;;;;;;5030346;28;20076;-59
2022/04/18 03:49:03;;;;;;;5.85;4.72;;;8.60;99.90;;;;;;5035793;28;20232;-59
2022/04/18 03:51:30;;;;;;;5.50;4.15;;;8.50;99.90;;;;;;5034871;28;20355;-60
2022/04/18 03:53:57;;;;;;;5.75;4.85;;;8.50;99.90;;;;;;5034817;28;20085;-59
2022/04/18 03:56:24;;;;;;;5.78;4.72;;;8.50;99.90;;;;;;5027480;28;20442;-59
2022/04/18 03:58:50;;;;;;;5.80;4.68;;;8.50;99.90;;;;;;5020582;28;20137;-59
2022/04/18 04:01:17;;;;;;;6.15;4.50;;;8.50;99.90;;;;;;5030059;28;20478;-59
2022/04/18 04:03:46;;;;;;;6.85;5.15;;;8.50;99.90;;;;;;5027851;28;20115;-59
2022/04/18 04:06:12;;;;;;;6.97;5.28;;;8.50;99.90;;;;;;5035296;28;20299;-59
2022/04/18 04:08:39;;;;;;;6.32;5.03;;;8.50;99.90;;;;;;5034272;28;20049;-59
2022/04/18 04:11:06;;;;;;;7.00;5.65;;;8.50;99.90;;;;;;5030891;28;20081;-59
2022/04/18 04:13:33;;;;;;;7.30;5.85;;;8.50;99.90;;;;;;5030354;28;20492;-60
2022/04/18 04:15:59;;;;;;;8.07;6.80;;;8.40;99.90;;;;;;5032245;28;20063;-60
2022/04/18 04:18:26;;;;;;;8.27;6.22;;;8.50;99.90;;;;;;5028778;28;20133;-59
2022/04/18 04:20:53;;;;;;;8.55;6.65;;;8.40;99.90;;;;;;5030008;28;20096;-60
2022/04/18 04:23:20;;;;;;;8.25;7.00;;;8.40;99.90;;;;;;5030284;28;20406;-59
2022/04/18 04:25:47;;;;;;;8.00;6.30;;;8.40;99.90;;;;;;5037859;28;20049;-59
2022/04/18 04:28:14;;;;;;;7.00;6.10;;;8.40;99.90;;;;;;5035839;28;20128;-59
2022/04/18 04:30:41;;;;;;;7.68;6.32;;;8.40;99.90;;;;;;5029434;28;20116;-60
2022/04/18 04:33:08;;;;;;;7.35;6.32;;;8.50;99.90;;;;;;5030743;28;20243;-60
2022/04/18 04:35:34;;;;;;;7.35;6.63;;;8.50;99.90;;;;;;5029457;28;20077;-59
2022/04/18 04:38:01;;;;;;;7.35;5.60;;;8.40;99.90;;;;;;5027580;28;20245;-59
2022/04/18 04:40:28;;;;;;;7.85;5.97;;;8.40;99.90;;;;;;5029426;28;20441;-60
2022/04/18 04:42:55;;;;;;;7.25;6.22;;;8.40;99.90;;;;;;5030180;28;20083;-60
2022/04/18 04:45:21;;;;;;;8.10;5.97;;;8.30;99.90;;;;;;5035619;28;20087;-59
2022/04/18 04:47:48;;;;;;;7.38;6.32;;;8.30;99.90;;;;;;5035254;28;20164;-59
2022/04/18 04:50:15;;;;;;;6.65;5.53;;;8.20;99.90;;;;;;5029374;28;20077;-59
2022/04/18 04:52:42;;;;;;;7.13;5.63;;;8.20;99.90;;;;;;5032759;28;20874;-59
2022/04/18 04:55:14;;;;;;;7.68;6.50;;;8.10;99.90;;;;;;5030216;28;20049;-59
2022/04/18 04:57:41;;;;;;;8.70;7.10;;;8.20;99.90;;;;;;5027891;28;20365;-59
2022/04/18 05:00:08;;;;;;;7.55;5.80;;;8.10;99.90;;;;;;5035779;28;20057;-59
2022/04/18 05:02:35;;;;;;;7.45;6.05;;;8.20;99.90;;;;;;5031898;28;20068;-59
2022/04/18 05:05:02;;;;;;;8.88;7.00;;;8.20;99.90;;;;;;5023503;28;20519;-62
2022/04/18 05:07:28;;;;;;;6.70;5.95;;;8.20;99.90;;;;;;5025836;28;20143;-60
2022/04/18 05:09:55;;;;;;;7.65;6.30;;;8.20;99.90;;;;;;5027990;28;20136;-59
2022/04/18 05:12:22;;;;;;;7.20;5.93;;;8.20;99.90;;;;;;5027648;28;20132;-59
2022/04/18 05:14:49;;;;;;;8.05;6.30;;;8.20;99.90;;;;;;5027297;28;20160;-59
2022/04/18 05:17:16;;;;;;;7.35;6.20;;;8.20;99.90;;;;;;5025037;28;20453;-59
2022/04/18 05:19:42;;;;;;;8.35;6.57;;;8.20;99.90;;;;;;5021825;28;20041;-59
2022/04/18 05:22:09;;;;;;;7.55;6.13;;;8.20;99.90;;;;;;5026996;28;20076;-60
2022/04/18 05:24:36;;;;;;;8.05;6.78;;;8.20;99.90;;;;;;5027505;28;20084;-60
2022/04/18 05:27:03;;;;;;;7.38;6.18;;;8.20;99.90;;;;;;5026448;28;20050;-59
2022/04/18 05:29:29;;;;;;;7.60;6.63;;;8.20;99.90;;;;;;5026215;28;20133;-59
2022/04/18 05:31:56;;;;;;;7.60;5.93;;;8.20;99.90;;;;;;5030590;28;20087;-59
2022/04/18 05:34:23;;;;;;;8.05;6.07;;;8.20;99.90;;;;;;5030173;28;20568;-59
2022/04/18 05:36:52;;;;;;;8.13;6.78;;;8.30;99.90;;;;;;5032516;28;20430;-59
2022/04/18 05:39:20;;;;;;;7.00;5.80;;;8.30;99.90;;;;;;5023937;28;20115;-59
2022/04/18 05:41:46;;;;;;;8.70;6.30;;;8.40;99.90;;;;;;5025767;28;20140;-59
2022/04/18 05:44:13;;;;;;;9.40;6.22;;;8.50;99.90;;;;;;5029246;28;20143;-60
2022/04/18 05:46:40;;;;;;;8.80;6.63;;;8.50;99.90;;;;;;5026736;28;20498;-59
2022/04/18 05:49:06;;;;;;;8.00;6.47;;;8.60;99.90;;;;;;5030277;28;20123;-59
2022/04/18 05:51:33;;;;;;;9.35;6.88;;;8.60;99.90;;;;;;5028801;28;20140;-59
2022/04/18 05:54:01;;;;;;;8.52;6.88;;;8.60;99.90;;;;;;5010451;28;20144;-59
2022/04/18 05:56:28;;;;;;;9.32;6.75;;;8.70;99.90;;;;;;5020728;28;20145;-59
2022/04/18 05:58:55;;;;;;;8.27;6.45;;;8.70;99.90;;;;;;5010271;28;20120;-59
2022/04/18 06:01:22;;;;;;;8.93;7.00;;;8.70;99.90;;;;;;5000704;28;20151;-59
2022/04/18 06:03:49;;;;;;;9.38;7.18;;;8.80;99.90;;;;;;5008790;28;20422;-59
2022/04/18 06:06:15;;;;;;;8.45;6.55;;;8.80;99.90;;;;;;5020625;28;20136;-60
2022/04/18 06:08:42;;;;;;;8.63;6.75;;;8.90;99.90;;;;;;5020690;28;20052;-60
2022/04/18 06:11:09;;;;;;;9.25;6.90;;;9.00;99.90;;;;;;5020787;28;20137;-59
2022/04/18 06:13:36;;;;;;;7.93;6.78;;;9.00;99.90;;;;;;5020813;28;20124;-59
2022/04/18 06:16:03;;;;;;;8.32;6.80;;;9.10;99.90;;;;;;5027777;28;20161;-59
2022/04/18 06:18:29;;;;;;;8.50;6.93;;;9.20;99.90;;;;;;5020532;28;20300;-59
2022/04/18 06:20:56;;;;;;;10.07;7.50;;;9.30;99.90;;;;;;5039674;28;20061;-59
2022/04/18 06:23:23;;;;;;;9.63;7.75;;;9.40;99.90;;;;;;5024840;28;20703;-60
2022/04/18 06:25:50;;;;;;;9.38;8.02;;;9.50;99.90;;;;;;5022127;28;20128;-59
2022/04/18 06:28:19;;;;;;;8.32;7.43;;;9.60;99.90;;;;;;5016211;28;20132;-59
2022/04/18 06:30:46;;;;;;;9.75;7.93;;;9.70;99.90;;;;;;5020834;28;20121;-60
2022/04/18 06:33:13;;;;;;;10.43;8.75;;;9.80;99.90;;;;;;5008663;28;20110;-59
2022/04/18 06:35:41;;;;;;;9.57;7.63;;;9.90;99.90;;;;;;5013573;28;20117;-59
2022/04/18 06:38:08;;;;;;;10.00;7.85;;;10.00;99.90;;;;;;5031592;28;20096;-60
2022/04/18 06:40:35;;;;;;;10.18;7.95;;;10.20;99.90;;;;;;5015058;28;20141;-59
2022/04/18 06:43:02;;;;;;;9.30;7.90;;;10.30;99.90;;;;;;5019746;28;20053;-58
2022/04/18 06:45:31;;;;;;;9.95;8.95;;;10.30;99.90;;;;;;5019529;28;20080;-59
2022/04/18 06:47:58;;;;;;;10.45;7.90;;;10.40;99.90;;;;;;5013297;28;21012;-59
2022/04/18 06:50:24;;;;;;;12.10;8.48;;;10.50;99.90;;;;;;5023232;28;20045;-59
2022/04/18 06:52:51;;;;;;;11.32;9.50;;;10.60;99.90;;;;;;5013157;28;20073;-59
2022/04/18 06:55:18;;;;;;;9.90;8.43;;;10.60;99.90;;;;;;5018890;28;20049;-59
2022/04/18 06:57:45;;;;;;;9.82;7.82;;;10.70;99.90;;;;;;5021707;28;20472;-59
2022/04/18 07:00:12;;;;;;;8.65;7.53;;;10.80;99.90;;;;;;5019085;28;20587;-60
2022/04/18 07:02:50;;;;;;;9.00;7.00;;;10.80;99.90;;;;;;5012576;28;20549;-59
2022/04/18 07:05:17;;;;;;;10.43;7.53;;;10.90;99.90;;;;;;5020244;28;20523;-59
2022/04/18 07:07:44;;;;;;;9.52;7.65;;;11.00;99.90;;;;;;5007830;28;20496;-60
2022/04/18 07:10:10;;;;;;;9.10;6.88;;;11.00;99.90;;;;;;5008359;28;20104;-59
2022/04/18 07:12:37;;;;;;;8.63;6.97;;;11.10;99.90;;;;;;5010646;28;20140;-60
2022/04/18 07:15:05;;;;;;;9.32;7.38;;;11.10;99.90;;;;;;5018470;28;20144;-60
2022/04/18 07:17:31;;;;;;;7.90;6.72;;;11.10;99.90;;;;;;5010761;28;20510;-60
2022/04/18 07:19:58;;;;;;;7.82;5.95;;;11.20;99.90;;;;;;5003471;28;20449;-59
2022/04/18 07:22:25;;;;;;;8.60;6.32;;;11.20;99.90;;;;;;5010015;28;20323;-60
2022/04/18 07:24:52;;;;;;;7.25;5.97;;;11.20;99.90;;;;;;5028615;28;20055;-59
2022/04/18 07:27:18;;;;;;;7.85;5.97;;;11.20;99.90;;;;;;5031212;28;20375;-60
2022/04/18 07:29:45;;;;;;;7.32;5.82;;;11.20;99.90;;;;;;5006995;28;20437;-59
2022/04/18 07:32:12;;;;;;;7.05;5.57;;;11.30;99.90;;;;;;5011546;28;20104;-59
2022/04/18 07:34:39;;;;;;;8.88;6.55;;;11.30;99.90;;;;;;5006977;28;20037;-59
2022/04/18 07:37:05;;;;;;;8.77;6.57;;;11.30;99.90;;;;;;5007049;28;20058;-59
2022/04/18 07:39:32;;;;;;;6.95;6.20;;;11.40;99.90;;;;;;5021185;28;20144;-59
2022/04/18 07:41:59;;;;;;;6.97;5.43;;;11.50;99.90;;;;;;5022244;28;20401;-59
2022/04/18 07:44:26;;;;;;;6.63;5.53;;;11.60;99.90;;;;;;5023013;28;20088;-59
2022/04/18 07:46:52;;;;;;;6.53;5.55;;;11.70;99.90;;;;;;5020305;28;20123;-60
2022/04/18 07:49:19;;;;;;;7.10;5.13;;;11.80;99.90;;;;;;5011905;28;20305;-59
2022/04/18 07:51:46;;;;;;;6.78;5.63;;;12.00;99.90;;;;;;5006007;28;20053;-60
2022/04/18 07:54:14;;;;;;;6.28;5.00;;;12.10;99.90;;;;;;5016218;28;20131;-60
2022/04/18 07:56:43;;;;;;;6.88;4.88;;;12.10;99.90;;;;;;5024129;28;20145;-60
2022/04/18 07:59:10;;;;;;;6.50;5.13;;;12.20;99.90;;;;;;5020774;28;20166;-60
2022/04/18 08:01:37;;;;;;;6.10;4.97;;;12.30;99.90;;;;;;5013945;28;20484;-60
2022/04/18 08:04:04;;;;;;;4.53;3.83;;;12.40;99.90;;;;;;5014314;28;20489;-61
2022/04/18 08:06:32;;;;;;;4.75;3.97;;;12.50;99.90;;;;;;5007176;28;20105;-60
2022/04/18 08:08:59;;;;;;;5.28;3.70;;;12.60;99.90;;;;;;5015638;28;20451;-60
2022/04/18 08:11:26;;;;;;;4.95;3.80;;;12.70;99.90;;;;;;5011980;28;20073;-60
2022/04/18 08:13:53;;;;;;;5.32;4.00;;;12.80;99.90;;;;;;5012214;28;20202;-60
2022/04/18 08:16:20;;;;;;;5.25;3.42;;;12.80;99.90;;;;;;4999677;28;20508;-60
2022/04/18 08:18:47;;;;;;;5.68;4.03;;;12.90;99.90;;;;;;5012048;28;20134;-60
2022/04/18 08:21:15;;;;;;;4.60;3.47;;;12.90;99.90;;;;;;5000050;28;20058;-60
2022/04/18 08:23:45;;;;;;;5.35;3.55;;;12.90;99.90;;;;;;5009767;28;20045;-60
2022/04/18 08:26:12;;;;;;;6.93;4.05;;;13.00;99.90;;;;;;5011700;28;20280;-60
2022/04/18 08:28:39;;;;;;;4.68;3.35;;;13.00;99.90;;;;;;5007427;28;20136;-60
2022/04/18 08:31:07;;;;;;;6.40;4.10;;;13.10;99.90;;;;;;5007798;28;20214;-60
2022/04/18 08:33:34;;;;;;;5.18;3.78;;;13.10;99.90;;;;;;5006898;28;20042;-60
2022/04/18 08:36:01;;;;;;;4.07;2.72;;;13.20;99.90;;;;;;5024348;28;20053;-60
2022/04/18 08:38:28;;;;;;;3.92;3.15;;;13.30;99.90;;;;;;5021703;28;20832;-60
2022/04/18 08:40:55;;;;;;;5.97;3.40;;;13.40;99.90;;;;;;5011226;28;20381;-60
2022/04/18 08:43:26;;;;;;;5.47;3.70;;;13.40;99.90;;;;;;5004245;28;20050;-60
2022/04/18 08:45:53;;;;;;;5.35;3.78;;;13.40;99.90;;;;;;5005014;28;20073;-60
2022/04/18 08:53:51;;;;;;;6.20;3.63;;;13.70;99.90;;;;;;5004183;28;20076;-60
2022/04/18 08:56:18;;;;;;;4.85;3.67;;;13.70;99.90;;;;;;5006574;28;20081;-60
2022/04/18 08:58:44;;;;;;;3.60;2.60;;;13.70;99.90;;;;;;5012629;28;20443;-60
2022/04/18 09:01:11;;;;;;;3.13;2.53;;;13.80;99.90;;;;;;5013676;28;20144;-60
2022/04/18 09:03:39;;;;;;;4.45;3.38;;;13.90;99.90;;;;;;5012493;28;20076;-59
2022/04/18 09:06:12;;;;;;;5.18;3.35;;;13.90;99.90;;;;;;5008564;28;20593;-60
2022/04/18 09:08:52;;;;;;;;;;;13.80;99.90;;;;;;5010405;28;20465;-61
2022/04/18 09:11:30;;;;;;;4.15;2.70;;;13.80;99.90;;;;;;4999940;28;19940;-61
2022/04/18 09:14:13;;;;;;;4.05;2.50;;;14.00;99.90;;;;;;5019094;28;20136;-60
2022/04/18 09:16:41;;;;;;;4.25;2.58;;;14.00;99.90;;;;;;5019379;28;20146;-60
2022/04/18 09:19:16;;;;;;;4.88;2.55;;;14.00;99.90;;;;;;5019097;28;20128;-60
2022/04/18 09:21:43;;;;;;;3.17;2.38;;;14.10;99.90;;;;;;5019629;28;20049;-60
2022/04/18 09:24:32;;;;;;;3.38;2.25;;;14.10;99.90;;;;;;5020086;28;20095;-60
2022/04/18 09:27:29;;;;;;;3.22;1.83;;;14.00;99.90;;;;;;5018999;28;20241;-61
2022/04/18 09:30:07;;;;;;;2.25;1.73;;;13.90;99.90;;;;;;5002159;28;20157;-61
2022/04/18 09:32:33;;;;;;;2.70;1.85;;;14.00;99.90;;;;;;5007657;28;20128;-60
2022/04/18 09:35:01;;;;;;;2.72;1.92;;;14.10;99.90;;;;;;5020715;28;20184;-61
2022/04/18 09:37:29;;;;;;;4.15;1.88;;;14.20;99.90;;;;;;5022789;28;20412;-60
2022/04/18 09:39:56;;;;;;;2.30;1.60;;;14.30;99.90;;;;;;5024251;28;20178;-61
2022/04/18 09:42:25;;;;;;;2.33;1.58;;;14.40;99.90;;;;;;5022955;28;20145;-61
2022/04/18 09:44:51;;;;;;;3.20;1.35;;;14.50;99.90;;;;;;5023027;28;20136;-61
2022/04/18 09:47:20;;;;;;;1.95;1.42;;;14.70;99.90;;;;;;5024758;28;20123;-60
2022/04/18 09:49:47;;;;;;;2.25;1.65;;;14.70;99.90;;;;;;5024715;28;20049;-61
2022/04/18 09:52:16;;;;;;;1.63;1.23;;;14.80;99.90;;;;;;5023560;28;20481;-60
2022/04/18 09:54:52;;;;;;;3.22;1.60;;;14.90;99.90;;;;;;5024887;28;20041;-60
2022/04/18 09:57:23;;;;;;;2.65;1.30;;;14.80;99.90;;;;;;5024081;28;20137;-60
2022/04/18 09:59:51;;;;;;;1.98;1.05;;;14.80;99.90;;;;;;5023241;28;20081;-60
2022/04/18 10:02:18;;;;;;;2.30;1.27;;;14.90;99.90;;;;;;5021535;28;20316;-60
2022/04/18 10:04:45;;;;;;;2.28;1.33;;;15.00;99.90;;;;;;5021383;28;20060;-60
2022/04/18 10:07:13;;;;;;;2.22;1.40;;;14.80;99.90;;;;;;5021578;28;20056;-60
2022/04/18 10:09:40;;;;;;;2.13;1.35;;;14.70;99.90;;;;;;5023069;28;20125;-61
2022/04/18 10:12:08;;;;;;;2.95;1.30;;;14.70;99.90;;;;;;5022903;28;20149;-60
2022/04/18 10:14:36;;;;;;;1.92;1.00;;;14.80;99.90;;;;;;5022937;28;20283;-60
2022/04/18 10:17:03;;;;;;;1.70;1.08;;;14.80;99.90;;;;;;5023608;28;20140;-61
2022/04/18 10:20:06;;;;;;;1.08;0.75;;;15.00;99.90;;;;;;5022729;28;20092;-60
2022/04/18 10:22:41;;;;;;;2.40;1.08;;;15.30;99.90;;;;;;5023429;28;20069;-61
2022/04/18 10:25:49;;;;;;;1.90;1.10;;;15.40;99.90;;;;;;5024279;28;20136;-62
2022/04/18 10:28:17;;;;;;;2.03;1.08;;;15.50;99.90;;;;;;5020892;28;20489;-61
2022/04/18 10:30:53;;;;;;;1.30;0.80;;;15.80;99.30;;;;;;5002393;28;20077;-61
2022/04/18 10:33:20;;;;;;;2.10;0.90;;;15.90;98.70;;;;;;5013455;28;20418;-61
2022/04/18 10:36:03;;;;;;;2.85;0.65;;;16.10;98.70;;;;;;5023438;28;20502;-62
2022/04/18 10:38:33;;;;;;;1.13;0.80;;;16.10;97.50;;;;;;5024346;28;20415;-61
2022/04/18 10:41:15;;;;;;;2.00;1.00;;;16.10;97.20;;;;;;5024217;28;20144;-61
2022/04/18 10:44:08;;;;;;;2.55;0.90;;;16.00;97.90;;;;;;5024056;28;20072;-61
2022/04/18 10:46:36;;;;;;;;;;;16.20;97.80;;;;;;5023328;28;20481;-62
2022/04/18 10:49:04;;;;;;;1.20;0.65;;;16.30;97.40;;;;;;5024222;28;20385;-61
2022/04/18 10:51:37;;;;;;;1.35;0.82;;;16.30;97.20;;;;;;5022992;28;20104;-61
2022/04/18 10:54:10;;;;;;;1.57;0.70;;;16.40;96.50;;;;;;5023849;28;20081;-61
2022/04/18 10:56:47;;;;;;;;;;;16.40;96.50;;;;;;5024017;28;20042;-61
2022/04/18 10:59:14;;;;;;;1.77;0.98;;;16.40;96.60;;;;;;5024753;28;19921;-61
2022/04/18 11:01:42;;;;;;;1.58;0.95;;;16.20;96.50;;;;;;5023701;28;20411;-61
2022/04/18 11:04:12;;;;;;;2.75;0.82;;;16.00;96.80;;;;;;5023351;28;20053;-61
2022/04/18 11:06:40;;;;;;;2.97;1.02;;;15.90;96.20;;;;;;5022925;28;20096;-61
2022/04/18 11:09:08;;;;;;;2.47;1.20;;;15.90;96.70;;;;;;5023834;28;20081;-61
2022/04/18 11:11:55;;;;;;;1.80;0.70;;;16.10;96.30;;;;;;5023335;28;20396;-61
2022/04/18 11:14:26;;;;;;;1.00;0.57;;;16.30;95.00;;;;;;5014699;28;20129;-62
2022/04/18 11:16:58;;;;;;;1.63;0.70;;;16.60;95.20;;;;;;5023645;28;20085;-61
2022/04/18 11:19:46;;;;;;;1.35;0.70;;;16.70;94.70;;;;;;5023977;28;20050;-60
2022/04/18 11:22:23;;;;;;;1.88;0.70;;;16.70;94.30;;;;;;5021405;28;20132;-60
2022/04/18 11:24:51;;;;;;;1.92;0.90;;;16.80;93.40;;;;;;5024225;28;20166;-61
2022/04/18 11:27:22;;;;;;;1.25;0.55;;;17.10;93.50;;;;;;5027573;28;20484;-60
2022/04/18 11:30:01;;;;;;;1.85;0.90;;;17.40;92.60;;;;;;5025843;28;20168;-61
2022/04/18 11:32:33;;;;;;;1.98;0.70;;;17.50;91.20;;;;;;5027007;28;20136;-60
2022/04/18 11:35:00;;;;;;;0.32;0.32;;;17.90;91.90;;;;;;5006080;28;20544;-61
2022/04/18 11:37:33;;;;;;;1.75;0.68;;;18.40;91.90;;;;;;5006474;28;20137;-61
2022/04/18 11:40:04;;;;;;;;;;;18.70;90.20;;;;;;5026815;28;20494;-61
2022/04/18 11:42:31;;;;;;;1.23;0.55;;;18.90;86.70;;;;;;5024761;28;20050;-61
2022/04/18 11:45:00;;;;;;;0.95;0.45;;;19.10;86.30;;;;;;5006093;28;20053;-61
2022/04/18 11:47:29;;;;;;;2.17;0.60;;;19.00;83.50;;;;;;5005926;28;20046;-61
2022/04/18 11:50:01;;;;;;;1.13;0.50;;;19.00;82.00;;;;;;5023358;28;20056;-61
2022/04/18 11:52:29;;;;;;;0.60;0.60;;;19.10;82.60;;;;;;5024328;28;20096;-61
2022/04/18 11:54:57;;;;;;;0.80;0.50;;;19.20;79.00;;;;;;5026585;28;20128;-61
2022/04/18 11:57:24;;;;;;;1.13;0.60;;;19.30;78.50;;;;;;5025506;28;20077;-61
2022/04/18 11:59:51;;;;;;;0.70;0.60;;;19.50;78.50;;;;;;5025796;28;20132;-61
2022/04/18 12:08:04;;;;;;;1.17;0.50;;;20.30;77.10;;;;;;5026342;28;20049;-61
2022/04/18 12:10:32;;;;;;;1.15;0.60;;;20.20;72.20;;;;;;5026320;28;20053;-61
2022/04/18 12:13:03;;;;;;;0.85;0.50;;;20.10;70.60;;;;;;5025863;28;20415;-61
2022/04/18 12:15:30;;;;;;;0.75;0.50;;;20.30;72.30;;;;;;5025299;28;20548;-61
2022/04/18 12:17:57;;;;;;;2.10;0.77;;;20.40;70.90;;;;;;5025897;28;20504;-61
2022/04/18 12:20:28;;;;;;;0.85;0.65;;;20.20;69.00;;;;;;5026232;28;20097;-61
2022/04/18 12:22:59;;;;;;;3.38;0.80;;;20.50;69.00;;;;;;5004474;28;20140;-61
2022/04/18 12:25:30;;;;;;;0.88;0.50;;;20.30;67.90;;;;;;5022688;28;20088;-61
2022/04/18 12:27:58;;;;;;;1.98;0.90;;;20.30;66.20;;;;;;5024899;28;20046;-61
2022/04/18 12:30:26;;;;;;;1.17;1.00;;;20.50;66.20;;;;;;5024460;28;20124;-61
2022/04/18 12:32:54;;;;;;;0.80;0.50;;;20.90;64.90;;;;;;5024542;28;20519;-61
2022/04/18 12:35:40;;;;;;;0.68;0.50;;;21.00;64.10;;;;;;5024049;28;20549;-61
2022/04/18 12:38:09;;;;;;;1.35;0.60;;;21.50;63.00;;;;;;5007048;28;20115;-61
2022/04/18 12:40:40;;;;;;;1.10;0.50;;;21.90;61.90;;;;;;5024441;28;20088;-61
2022/04/18 12:43:17;;;;;;;0.50;0.40;;;22.20;63.80;;;;;;5023707;28;20128;-62
2022/04/18 12:45:50;;;;;;;;;;;22.30;61.10;;;;;;5024820;28;20167;-61
2022/04/18 12:48:24;;;;;;;0.40;0.38;;;22.50;63.80;;;;;;5024774;28;20012;-61
2022/04/18 12:50:51;;;;;;;0.93;0.50;;;22.50;62.40;;;;;;5022908;28;20566;-61
2022/04/18 12:53:19;;;;;;;0.90;0.50;;;22.30;62.60;;;;;;5024609;28;20061;-61
2022/04/18 12:55:46;;;;;;;2.33;0.80;;;22.40;57.70;;;;;;5024997;28;20331;-61
2022/04/18 12:58:19;;;;;;;1.23;0.80;;;21.90;58.70;;;;;;5022473;28;20245;-61
2022/04/18 13:00:48;;;;;;;0.63;0.50;;;21.90;59.30;;;;;;5021893;28;20053;-61
2022/04/18 13:03:15;;;;;;;1.20;0.70;;;22.00;59.20;;;;;;5024804;28;20160;-62
2022/04/18 13:05:48;;;;;;;1.23;0.40;;;22.20;59.40;;;;;;5024735;28;20121;-61
2022/04/18 13:08:16;;;;;;;1.90;0.75;;;22.50;58.60;;;;;;5023520;28;20080;-61
2022/04/18 13:10:44;;;;;;;0.93;0.50;;;22.60;59.20;;;;;;5024856;28;20085;-62
2022/04/18 13:13:15;;;;;;;1.05;0.57;;;22.70;60.20;;;;;;5025286;28;20529;-61
2022/04/18 13:15:43;;;;;;;1.08;0.70;;;22.70;56.70;;;;;;5023427;28;20148;-61
2022/04/18 13:18:25;;;;;;;0.70;0.60;;;22.80;59.10;;;;;;5024834;28;20056;-61
2022/04/18 13:20:52;;;;;;;0.90;0.60;;;22.80;58.50;;;;;;5024185;28;20088;-61
2022/04/18 13:23:19;;;;;;;0.50;0.43;;;22.90;57.80;;;;;;5023721;28;20103;-62
2022/04/18 13:25:46;;;;;;;1.02;0.50;;;23.10;58.70;;;;;;5024201;28;20505;-61